Terminal Aerodrome Forecast
Issued by NWS Brownsville, TX

Home | Current Version | Previous Version | Text Only | Print | Product List | Glossary On
Versions: 1 2 3 4 5 6 7 8 9 10 11 12 13 14 15 16 17 18 19 20 21 22 23
000
FTUS44 KBRO 302244 AAB
TAFBRO
TAF AMD
KBRO 302244Z 3023/3118 13014KT P6SM VCSH FEW035 BKN060
     FM310200 09003KT P6SM VCTS SCT030CB BKN100
     FM310800 VRB04KT 5SM BR BKN020 BKN200
     FM311500 36006KT P6SM VCSH SCT020 BKN100=

USA.gov is the U.S. government's official web portal to all federal, state and local government web resources and services.